SPCL/PCL METAR and TAF weather

Enter ICAO airport designator
Station Type Date Time Source
SPCL METAR 2019/08/25 19:00 UTC NOAA

SPCL 251900Z 02006KT 9999 FEW020 34/20 Q1012 RMK BIRD HAZARD RWY 02/20 PP000


Station Type Date Time Source
SPCL Decoded METAR 2019/08/25 19:00 UTC NOAA

Station name not available
Aug 25, 2019 - 03:00 PM EDT / 2019.08.25 1900 UTC
Wind: from the NNE (020 degrees) at 7 MPH (6 KT):0
Visibility: greater than 7 mile(s):0
Sky conditions: mostly clear
Temperature: 93 F (34 C)
Heat index: 96.8 F (36.0 C):1
Dew Point: 68 F (20 C)
Relative Humidity: 43%
Pressure (altimeter): 29.88 in. Hg (1012 hPa)
ob: SPCL 251900Z 02006KT 9999 FEW020 34/20 Q1012 RMK BIRD HAZARD RWY 02/20 PP000
cycle: 19

Station Type Date Time Source
SPCL TAF 2019/08/25 18:33 UTC NOAA

TAF SPCL 251700Z 2518/2618 34004KT 9999 SCT020 BKN080 TX34/2520Z TN22/2611Z
TEMPO 2608/2612 2000 BR BKN015 SCT100

Example: see airport list